sensor_id;sensor_type;location;lat;lon;timestamp;temperature;humidity
7708;DHT22;3896;48.758;8.888;2024-01-25T00:00:05;10.30;92.60
7708;DHT22;3896;48.758;8.888;2024-01-25T00:02:31;10.30;92.70
7708;DHT22;3896;48.758;8.888;2024-01-25T00:04:57;10.30;92.80
7708;DHT22;3896;48.758;8.888;2024-01-25T00:07:22;10.30;92.90
7708;DHT22;3896;48.758;8.888;2024-01-25T00:09:48;10.30;92.90
7708;DHT22;3896;48.758;8.888;2024-01-25T00:12:13;10.40;93.00
7708;DHT22;3896;48.758;8.888;2024-01-25T00:14:39;10.40;93.20
7708;DHT22;3896;48.758;8.888;2024-01-25T00:17:05;10.40;93.20
7708;DHT22;3896;48.758;8.888;2024-01-25T00:19:30;10.40;93.30
7708;DHT22;3896;48.758;8.888;2024-01-25T00:21:56;10.40;93.50
7708;DHT22;3896;48.758;8.888;2024-01-25T00:24:22;10.40;93.50
7708;DHT22;3896;48.758;8.888;2024-01-25T00:26:47;10.30;93.50
7708;DHT22;3896;48.758;8.888;2024-01-25T00:29:13;10.40;93.60
7708;DHT22;3896;48.758;8.888;2024-01-25T00:31:40;10.40;93.70
7708;DHT22;3896;48.758;8.888;2024-01-25T00:34:06;10.40;93.80
7708;DHT22;3896;48.758;8.888;2024-01-25T00:36:32;10.40;93.80
7708;DHT22;3896;48.758;8.888;2024-01-25T00:38:57;10.40;93.90
7708;DHT22;3896;48.758;8.888;2024-01-25T00:41:23;10.40;93.90
7708;DHT22;3896;48.758;8.888;2024-01-25T00:43:49;10.40;93.90
7708;DHT22;3896;48.758;8.888;2024-01-25T00:46:15;10.40;93.90
7708;DHT22;3896;48.758;8.888;2024-01-25T00:48:41;10.50;94.00
7708;DHT22;3896;48.758;8.888;2024-01-25T00:51:11;10.50;93.90
7708;DHT22;3896;48.758;8.888;2024-01-25T00:53:39;10.50;93.90
7708;DHT22;3896;48.758;8.888;2024-01-25T00:56:05;10.50;94.00
7708;DHT22;3896;48.758;8.888;2024-01-25T00:58:31;10.50;94.00
7708;DHT22;3896;48.758;8.888;2024-01-25T01:00:57;10.50;94.10
7708;DHT22;3896;48.758;8.888;2024-01-25T01:03:23;10.40;94.10
7708;DHT22;3896;48.758;8.888;2024-01-25T01:05:49;10.50;94.30
7708;DHT22;3896;48.758;8.888;2024-01-25T01:08:14;10.50;94.40
7708;DHT22;3896;48.758;8.888;2024-01-25T01:10:40;10.50;94.50
7708;DHT22;3896;48.758;8.888;2024-01-25T01:13:06;10.50;94.60
7708;DHT22;3896;48.758;8.888;2024-01-25T01:15:31;10.50;94.70
7708;DHT22;3896;48.758;8.888;2024-01-25T01:17:57;10.40;94.80
7708;DHT22;3896;48.758;8.888;2024-01-25T01:20:23;10.50;94.90
7708;DHT22;3896;48.758;8.888;2024-01-25T01:22:48;10.50;95.00
7708;DHT22;3896;48.758;8.888;2024-01-25T01:25:14;10.50;95.10
7708;DHT22;3896;48.758;8.888;2024-01-25T01:27:39;10.50;95.10
7708;DHT22;3896;48.758;8.888;2024-01-25T01:30:05;10.50;95.20
7708;DHT22;3896;48.758;8.888;2024-01-25T01:32:33;10.50;95.30
7708;DHT22;3896;48.758;8.888;2024-01-25T01:34:59;10.40;95.30
7708;DHT22;3896;48.758;8.888;2024-01-25T01:37:24;10.50;95.30
7708;DHT22;3896;48.758;8.888;2024-01-25T01:39:50;10.50;95.40
7708;DHT22;3896;48.758;8.888;2024-01-25T01:42:16;10.40;95.40
7708;DHT22;3896;48.758;8.888;2024-01-25T01:44:41;10.40;95.40
7708;DHT22;3896;48.758;8.888;2024-01-25T01:47:07;10.40;95.30
7708;DHT22;3896;48.758;8.888;2024-01-25T01:49:33;10.50;95.30
7708;DHT22;3896;48.758;8.888;2024-01-25T01:51:58;10.40;95.20
7708;DHT22;3896;48.758;8.888;2024-01-25T01:54:24;10.40;95.10
7708;DHT22;3896;48.758;8.888;2024-01-25T01:56:50;10.40;95.10
7708;DHT22;3896;48.758;8.888;2024-01-25T01:59:17;10.40;95.10
7708;DHT22;3896;48.758;8.888;2024-01-25T02:01:42;10.40;95.00
7708;DHT22;3896;48.758;8.888;2024-01-25T02:04:08;10.40;95.10
7708;DHT22;3896;48.758;8.888;2024-01-25T02:06:33;10.40;95.10
7708;DHT22;3896;48.758;8.888;2024-01-25T02:08:59;10.40;95.10
7708;DHT22;3896;48.758;8.888;2024-01-25T02:11:26;10.40;95.10
7708;DHT22;3896;48.758;8.888;2024-01-25T02:13:51;10.40;95.20
7708;DHT22;3896;48.758;8.888;2024-01-25T02:16:17;10.40;95.20
7708;DHT22;3896;48.758;8.888;2024-01-25T02:18:44;10.40;95.20
7708;DHT22;3896;48.758;8.888;2024-01-25T02:21:09;10.40;95.20
7708;DHT22;3896;48.758;8.888;2024-01-25T02:23:35;10.40;95.20
7708;DHT22;3896;48.758;8.888;2024-01-25T02:26:00;10.40;95.20
7708;DHT22;3896;48.758;8.888;2024-01-25T02:28:26;10.30;95.20
7708;DHT22;3896;48.758;8.888;2024-01-25T02:30:52;10.40;95.30
7708;DHT22;3896;48.758;8.888;2024-01-25T02:33:17;10.30;95.40
7708;DHT22;3896;48.758;8.888;2024-01-25T02:35:43;10.40;95.60
7708;DHT22;3896;48.758;8.888;2024-01-25T02:38:08;10.30;95.80
7708;DHT22;3896;48.758;8.888;2024-01-25T02:40:34;10.30;95.90
7708;DHT22;3896;48.758;8.888;2024-01-25T02:59:10;10.20;96.30
7708;DHT22;3896;48.758;8.888;2024-01-25T03:01:41;10.20;96.50
7708;DHT22;3896;48.758;8.888;2024-01-25T03:04:07;10.20;96.50
7708;DHT22;3896;48.758;8.888;2024-01-25T03:06:32;10.20;96.70
7708;DHT22;3896;48.758;8.888;2024-01-25T03:08:58;10.20;96.70
7708;DHT22;3896;48.758;8.888;2024-01-25T03:11:23;10.20;96.80
7708;DHT22;3896;48.758;8.888;2024-01-25T03:13:49;10.10;96.80
7708;DHT22;3896;48.758;8.888;2024-01-25T03:16:15;10.10;96.80
7708;DHT22;3896;48.758;8.888;2024-01-25T03:18:40;10.10;96.80
7708;DHT22;3896;48.758;8.888;2024-01-25T03:21:06;10.10;96.90
7708;DHT22;3896;48.758;8.888;2024-01-25T03:23:31;10.10;96.90
7708;DHT22;3896;48.758;8.888;2024-01-25T03:25:57;10.10;96.80
7708;DHT22;3896;48.758;8.888;2024-01-25T03:28:22;10.10;96.70
7708;DHT22;3896;48.758;8.888;2024-01-25T03:30:48;10.10;96.50
7708;DHT22;3896;48.758;8.888;2024-01-25T03:33:13;10.10;96.80
7708;DHT22;3896;48.758;8.888;2024-01-25T03:35:39;10.10;96.40
7708;DHT22;3896;48.758;8.888;2024-01-25T03:38:04;10.10;96.30
7708;DHT22;3896;48.758;8.888;2024-01-25T03:40:30;10.10;96.30
7708;DHT22;3896;48.758;8.888;2024-01-25T03:42:55;10.10;96.30
7708;DHT22;3896;48.758;8.888;2024-01-25T03:45:21;10.10;96.30
7708;DHT22;3896;48.758;8.888;2024-01-25T03:47:46;10.10;96.20
7708;DHT22;3896;48.758;8.888;2024-01-25T03:50:12;10.10;96.10
7708;DHT22;3896;48.758;8.888;2024-01-25T03:52:38;10.10;96.10
7708;DHT22;3896;48.758;8.888;2024-01-25T03:55:04;10.10;96.00
7708;DHT22;3896;48.758;8.888;2024-01-25T03:57:30;10.00;95.90
7708;DHT22;3896;48.758;8.888;2024-01-25T03:59:55;10.00;95.90
7708;DHT22;3896;48.758;8.888;2024-01-25T04:02:21;10.00;95.80
7708;DHT22;3896;48.758;8.888;2024-01-25T04:04:46;10.00;95.70
7708;DHT22;3896;48.758;8.888;2024-01-25T04:07:12;10.00;95.70
7708;DHT22;3896;48.758;8.888;2024-01-25T04:09:37;10.00;95.60
7708;DHT22;3896;48.758;8.888;2024-01-25T04:12:04;10.00;95.60
7708;DHT22;3896;48.758;8.888;2024-01-25T04:14:29;10.00;95.60
7708;DHT22;3896;48.758;8.888;2024-01-25T04:16:55;10.00;95.70
7708;DHT22;3896;48.758;8.888;2024-01-25T04:19:20;9.90;96.10
7708;DHT22;3896;48.758;8.888;2024-01-25T04:21:46;9.90;96.10
7708;DHT22;3896;48.758;8.888;2024-01-25T04:24:11;9.90;96.20
7708;DHT22;3896;48.758;8.888;2024-01-25T04:26:37;9.90;96.20
7708;DHT22;3896;48.758;8.888;2024-01-25T04:29:02;9.90;96.30
7708;DHT22;3896;48.758;8.888;2024-01-25T04:31:28;9.90;96.30
7708;DHT22;3896;48.758;8.888;2024-01-25T04:33:54;9.90;96.40
7708;DHT22;3896;48.758;8.888;2024-01-25T04:36:19;9.90;96.40
7708;DHT22;3896;48.758;8.888;2024-01-25T04:38:45;9.90;96.40
7708;DHT22;3896;48.758;8.888;2024-01-25T04:41:11;9.90;96.50
7708;DHT22;3896;48.758;8.888;2024-01-25T04:43:37;9.90;96.60
7708;DHT22;3896;48.758;8.888;2024-01-25T04:46:03;9.90;96.60
7708;DHT22;3896;48.758;8.888;2024-01-25T04:48:29;9.90;96.70
7708;DHT22;3896;48.758;8.888;2024-01-25T04:50:56;9.90;96.70
7708;DHT22;3896;48.758;8.888;2024-01-25T04:53:23;9.80;96.70
7708;DHT22;3896;48.758;8.888;2024-01-25T04:55:49;9.80;96.70
7708;DHT22;3896;48.758;8.888;2024-01-25T04:58:14;9.80;96.70
7708;DHT22;3896;48.758;8.888;2024-01-25T05:00:40;9.80;97.10
7708;DHT22;3896;48.758;8.888;2024-01-25T05:03:05;9.80;96.80
7708;DHT22;3896;48.758;8.888;2024-01-25T05:05:31;9.70;96.90
7708;DHT22;3896;48.758;8.888;2024-01-25T05:07:56;9.70;96.90
7708;DHT22;3896;48.758;8.888;2024-01-25T05:10:22;9.70;96.90
7708;DHT22;3896;48.758;8.888;2024-01-25T05:12:48;9.70;96.90
7708;DHT22;3896;48.758;8.888;2024-01-25T05:15:14;9.70;96.90
7708;DHT22;3896;48.758;8.888;2024-01-25T05:17:39;9.70;97.00
7708;DHT22;3896;48.758;8.888;2024-01-25T05:20:06;9.70;97.00
7708;DHT22;3896;48.758;8.888;2024-01-25T05:22:31;9.70;97.00
7708;DHT22;3896;48.758;8.888;2024-01-25T05:24:57;9.70;97.00
7708;DHT22;3896;48.758;8.888;2024-01-25T05:27:23;9.70;97.00
7708;DHT22;3896;48.758;8.888;2024-01-25T05:29:49;9.60;97.00
7708;DHT22;3896;48.758;8.888;2024-01-25T05:32:14;9.60;97.00
7708;DHT22;3896;48.758;8.888;2024-01-25T05:34:40;9.60;97.00
7708;DHT22;3896;48.758;8.888;2024-01-25T05:37:05;9.60;97.00
7708;DHT22;3896;48.758;8.888;2024-01-25T05:39:31;9.60;97.00
7708;DHT22;3896;48.758;8.888;2024-01-25T05:41:56;9.60;97.10
7708;DHT22;3896;48.758;8.888;2024-01-25T05:44:22;9.50;97.10
7708;DHT22;3896;48.758;8.888;2024-01-25T05:46:47;9.50;97.10
7708;DHT22;3896;48.758;8.888;2024-01-25T05:49:13;9.50;97.20
7708;DHT22;3896;48.758;8.888;2024-01-25T05:51:39;9.40;97.20
7708;DHT22;3896;48.758;8.888;2024-01-25T05:54:04;9.40;97.30
7708;DHT22;3896;48.758;8.888;2024-01-25T05:56:31;9.40;97.40
7708;DHT22;3896;48.758;8.888;2024-01-25T05:58:56;9.30;97.50
7708;DHT22;3896;48.758;8.888;2024-01-25T06:01:22;9.30;97.60
7708;DHT22;3896;48.758;8.888;2024-01-25T06:03:47;9.30;97.60
7708;DHT22;3896;48.758;8.888;2024-01-25T06:06:13;9.20;97.60
7708;DHT22;3896;48.758;8.888;2024-01-25T06:08:38;9.20;97.70
7708;DHT22;3896;48.758;8.888;2024-01-25T06:11:04;9.20;97.80
7708;DHT22;3896;48.758;8.888;2024-01-25T06:13:31;9.20;97.80
7708;DHT22;3896;48.758;8.888;2024-01-25T06:15:56;9.10;97.80
7708;DHT22;3896;48.758;8.888;2024-01-25T06:18:22;9.10;97.90
7708;DHT22;3896;48.758;8.888;2024-01-25T06:20:47;9.00;97.90
7708;DHT22;3896;48.758;8.888;2024-01-25T06:23:13;9.00;98.00
7708;DHT22;3896;48.758;8.888;2024-01-25T06:25:38;9.00;98.00
7708;DHT22;3896;48.758;8.888;2024-01-25T06:28:04;9.00;98.10
7708;DHT22;3896;48.758;8.888;2024-01-25T06:30:30;8.90;98.10
7708;DHT22;3896;48.758;8.888;2024-01-25T06:32:55;8.90;98.00
7708;DHT22;3896;48.758;8.888;2024-01-25T06:35:21;8.80;98.10
7708;DHT22;3896;48.758;8.888;2024-01-25T06:37:46;8.80;98.10
7708;DHT22;3896;48.758;8.888;2024-01-25T06:40:12;8.80;98.10
7708;DHT22;3896;48.758;8.888;2024-01-25T06:42:38;8.70;98.10
7708;DHT22;3896;48.758;8.888;2024-01-25T06:45:03;8.70;98.10
7708;DHT22;3896;48.758;8.888;2024-01-25T06:47:29;8.70;98.20
7708;DHT22;3896;48.758;8.888;2024-01-25T06:49:55;8.70;98.20
7708;DHT22;3896;48.758;8.888;2024-01-25T06:52:20;8.60;98.10
7708;DHT22;3896;48.758;8.888;2024-01-25T06:54:46;8.60;98.10
7708;DHT22;3896;48.758;8.888;2024-01-25T06:57:11;8.60;98.10
7708;DHT22;3896;48.758;8.888;2024-01-25T06:59:39;8.50;97.90
7708;DHT22;3896;48.758;8.888;2024-01-25T07:02:05;8.50;97.80
7708;DHT22;3896;48.758;8.888;2024-01-25T07:04:31;8.80;97.80
7708;DHT22;3896;48.758;8.888;2024-01-25T07:06:58;8.60;97.30
7708;DHT22;3896;48.758;8.888;2024-01-25T07:09:25;8.50;97.30
7708;DHT22;3896;48.758;8.888;2024-01-25T07:11:50;8.50;97.20
7708;DHT22;3896;48.758;8.888;2024-01-25T07:14:16;8.50;97.30
7708;DHT22;3896;48.758;8.888;2024-01-25T07:16:42;8.40;97.30
7708;DHT22;3896;48.758;8.888;2024-01-25T07:19:07;8.40;97.30
7708;DHT22;3896;48.758;8.888;2024-01-25T07:21:33;8.30;97.30
7708;DHT22;3896;48.758;8.888;2024-01-25T07:24:01;8.30;97.30
7708;DHT22;3896;48.758;8.888;2024-01-25T07:26:27;8.30;97.40
7708;DHT22;3896;48.758;8.888;2024-01-25T07:28:52;8.20;97.50
7708;DHT22;3896;48.758;8.888;2024-01-25T07:31:26;8.20;97.50
7708;DHT22;3896;48.758;8.888;2024-01-25T07:33:52;8.20;97.50
7708;DHT22;3896;48.758;8.888;2024-01-25T07:36:17;8.20;97.40
7708;DHT22;3896;48.758;8.888;2024-01-25T07:38:44;8.20;97.40
7708;DHT22;3896;48.758;8.888;2024-01-25T07:41:09;8.10;97.30
7708;DHT22;3896;48.758;8.888;2024-01-25T07:43:35;8.10;97.20
7708;DHT22;3896;48.758;8.888;2024-01-25T07:46:00;8.00;97.00
7708;DHT22;3896;48.758;8.888;2024-01-25T07:48:26;8.00;96.80
7708;DHT22;3896;48.758;8.888;2024-01-25T07:50:51;7.90;96.60
7708;DHT22;3896;48.758;8.888;2024-01-25T07:53:17;7.80;96.40
7708;DHT22;3896;48.758;8.888;2024-01-25T07:55:43;7.80;96.30
7708;DHT22;3896;48.758;8.888;2024-01-25T07:58:08;7.70;96.00
7708;DHT22;3896;48.758;8.888;2024-01-25T08:00:34;7.70;95.90
7708;DHT22;3896;48.758;8.888;2024-01-25T08:02:59;7.60;95.80
7708;DHT22;3896;48.758;8.888;2024-01-25T08:05:25;7.60;95.90
7708;DHT22;3896;48.758;8.888;2024-01-25T08:07:51;7.60;96.00
7708;DHT22;3896;48.758;8.888;2024-01-25T08:10:16;7.50;96.00
7708;DHT22;3896;48.758;8.888;2024-01-25T08:12:42;7.50;96.20
7708;DHT22;3896;48.758;8.888;2024-01-25T08:15:10;7.50;96.40
7708;DHT22;3896;48.758;8.888;2024-01-25T08:17:37;7.50;96.70
7708;DHT22;3896;48.758;8.888;2024-01-25T08:20:03;7.40;96.90
7708;DHT22;3896;48.758;8.888;2024-01-25T08:22:31;7.40;97.10
7708;DHT22;3896;48.758;8.888;2024-01-25T08:24:57;7.40;97.40
7708;DHT22;3896;48.758;8.888;2024-01-25T08:27:22;7.40;97.70
7708;DHT22;3896;48.758;8.888;2024-01-25T08:29:48;7.50;98.10
7708;DHT22;3896;48.758;8.888;2024-01-25T08:32:14;7.50;98.50
7708;DHT22;3896;48.758;8.888;2024-01-25T08:34:39;7.50;98.80
7708;DHT22;3896;48.758;8.888;2024-01-25T08:37:05;7.50;99.10
7708;DHT22;3896;48.758;8.888;2024-01-25T08:39:30;7.60;99.50
7708;DHT22;3896;48.758;8.888;2024-01-25T08:41:56;7.60;99.70
7708;DHT22;3896;48.758;8.888;2024-01-25T08:44:25;7.70;99.90
7708;DHT22;3896;48.758;8.888;2024-01-25T08:46:51;7.70;99.90
7708;DHT22;3896;48.758;8.888;2024-01-25T08:49:17;7.80;99.90
7708;DHT22;3896;48.758;8.888;2024-01-25T08:51:42;7.80;99.90
7708;DHT22;3896;48.758;8.888;2024-01-25T08:54:08;7.90;99.90
7708;DHT22;3896;48.758;8.888;2024-01-25T08:56:34;8.00;99.90
7708;DHT22;3896;48.758;8.888;2024-01-25T08:59:00;8.00;99.90
7708;DHT22;3896;48.758;8.888;2024-01-25T09:01:27;8.10;99.90
7708;DHT22;3896;48.758;8.888;2024-01-25T09:03:52;8.20;99.90
7708;DHT22;3896;48.758;8.888;2024-01-25T09:06:18;8.20;99.90
7708;DHT22;3896;48.758;8.888;2024-01-25T09:08:44;8.30;99.90
7708;DHT22;3896;48.758;8.888;2024-01-25T09:11:09;8.30;99.90
7708;DHT22;3896;48.758;8.888;2024-01-25T09:13:35;8.40;99.90
7708;DHT22;3896;48.758;8.888;2024-01-25T09:16:00;8.50;99.90
7708;DHT22;3896;48.758;8.888;2024-01-25T09:18:26;8.60;99.90
7708;DHT22;3896;48.758;8.888;2024-01-25T09:20:53;8.60;99.90
7708;DHT22;3896;48.758;8.888;2024-01-25T09:23:18;8.70;99.90
7708;DHT22;3896;48.758;8.888;2024-01-25T09:25:45;8.80;99.90
7708;DHT22;3896;48.758;8.888;2024-01-25T09:28:10;8.90;99.90
7708;DHT22;3896;48.758;8.888;2024-01-25T09:30:40;9.00;99.90
7708;DHT22;3896;48.758;8.888;2024-01-25T09:33:08;9.00;99.90
7708;DHT22;3896;48.758;8.888;2024-01-25T09:35:34;9.10;99.90
7708;DHT22;3896;48.758;8.888;2024-01-25T09:38:00;9.20;99.90
7708;DHT22;3896;48.758;8.888;2024-01-25T09:40:25;9.30;99.90
7708;DHT22;3896;48.758;8.888;2024-01-25T09:42:52;9.40;99.90
7708;DHT22;3896;48.758;8.888;2024-01-25T09:45:19;9.50;99.90
7708;DHT22;3896;48.758;8.888;2024-01-25T09:47:45;9.60;99.40
7708;DHT22;3896;48.758;8.888;2024-01-25T09:50:11;9.70;99.10
7708;DHT22;3896;48.758;8.888;2024-01-25T09:52:38;9.80;98.90
7708;DHT22;3896;48.758;8.888;2024-01-25T09:55:07;9.90;98.30
7708;DHT22;3896;48.758;8.888;2024-01-25T09:57:35;10.00;97.00
7708;DHT22;3896;48.758;8.888;2024-01-25T10:00:03;10.10;96.70
7708;DHT22;3896;48.758;8.888;2024-01-25T10:02:29;10.20;96.30
7708;DHT22;3896;48.758;8.888;2024-01-25T10:04:54;10.20;95.90
7708;DHT22;3896;48.758;8.888;2024-01-25T10:07:36;10.30;95.60
7708;DHT22;3896;48.758;8.888;2024-01-25T10:10:03;10.40;95.50
7708;DHT22;3896;48.758;8.888;2024-01-25T10:12:31;10.60;95.20
7708;DHT22;3896;48.758;8.888;2024-01-25T10:14:57;10.70;94.70
7708;DHT22;3896;48.758;8.888;2024-01-25T10:17:22;10.80;94.20
7708;DHT22;3896;48.758;8.888;2024-01-25T10:19:48;10.90;94.10
7708;DHT22;3896;48.758;8.888;2024-01-25T10:22:14;11.00;93.70
7708;DHT22;3896;48.758;8.888;2024-01-25T10:24:40;11.10;93.40
7708;DHT22;3896;48.758;8.888;2024-01-25T10:27:07;11.20;93.20
7708;DHT22;3896;48.758;8.888;2024-01-25T10:29:34;11.30;92.80
7708;DHT22;3896;48.758;8.888;2024-01-25T10:32:01;11.40;92.60
7708;DHT22;3896;48.758;8.888;2024-01-25T10:34:29;11.50;91.80
7708;DHT22;3896;48.758;8.888;2024-01-25T10:36:55;11.60;91.40
7708;DHT22;3896;48.758;8.888;2024-01-25T10:39:21;11.80;91.20
7708;DHT22;3896;48.758;8.888;2024-01-25T10:41:47;11.90;90.90
7708;DHT22;3896;48.758;8.888;2024-01-25T10:44:17;12.00;90.60
7708;DHT22;3896;48.758;8.888;2024-01-25T10:46:47;12.20;90.20
7708;DHT22;3896;48.758;8.888;2024-01-25T10:49:13;12.40;90.30
7708;DHT22;3896;48.758;8.888;2024-01-25T10:51:40;12.60;89.00
7708;DHT22;3896;48.758;8.888;2024-01-25T10:54:08;12.70;88.10
7708;DHT22;3896;48.758;8.888;2024-01-25T10:56:46;12.80;88.20
7708;DHT22;3896;48.758;8.888;2024-01-25T10:59:12;13.00;88.10
7708;DHT22;3896;48.758;8.888;2024-01-25T11:01:42;13.20;85.90
7708;DHT22;3896;48.758;8.888;2024-01-25T11:04:16;13.40;85.00
7708;DHT22;3896;48.758;8.888;2024-01-25T11:06:45;13.40;83.60
7708;DHT22;3896;48.758;8.888;2024-01-25T11:09:17;13.50;82.10
7708;DHT22;3896;48.758;8.888;2024-01-25T11:11:54;13.60;81.60
7708;DHT22;3896;48.758;8.888;2024-01-25T11:14:20;13.60;80.30
7708;DHT22;3896;48.758;8.888;2024-01-25T11:16:45;13.60;79.30
7708;DHT22;3896;48.758;8.888;2024-01-25T11:19:19;13.60;78.90
7708;DHT22;3896;48.758;8.888;2024-01-25T11:21:50;13.60;79.10
7708;DHT22;3896;48.758;8.888;2024-01-25T11:24:19;13.60;78.30
7708;DHT22;3896;48.758;8.888;2024-01-25T11:26:46;13.60;77.80
7708;DHT22;3896;48.758;8.888;2024-01-25T11:29:16;13.60;77.60
7708;DHT22;3896;48.758;8.888;2024-01-25T11:31:46;13.60;77.80
7708;DHT22;3896;48.758;8.888;2024-01-25T11:34:13;13.70;77.80
7708;DHT22;3896;48.758;8.888;2024-01-25T11:36:39;13.70;77.30
7708;DHT22;3896;48.758;8.888;2024-01-25T11:39:05;13.80;77.00
7708;DHT22;3896;48.758;8.888;2024-01-25T11:41:32;13.80;76.90
7708;DHT22;3896;48.758;8.888;2024-01-25T11:43:58;13.90;76.10
7708;DHT22;3896;48.758;8.888;2024-01-25T11:46:25;14.00;75.50
7708;DHT22;3896;48.758;8.888;2024-01-25T11:48:51;14.10;74.70
7708;DHT22;3896;48.758;8.888;2024-01-25T11:51:16;14.10;74.40
7708;DHT22;3896;48.758;8.888;2024-01-25T11:53:42;14.30;74.00
7708;DHT22;3896;48.758;8.888;2024-01-25T11:56:11;14.40;73.30
7708;DHT22;3896;48.758;8.888;2024-01-25T11:58:39;14.50;73.20
7708;DHT22;3896;48.758;8.888;2024-01-25T12:01:06;14.60;71.90
7708;DHT22;3896;48.758;8.888;2024-01-25T12:03:36;14.60;71.40
7708;DHT22;3896;48.758;8.888;2024-01-25T12:06:03;14.70;70.40
7708;DHT22;3896;48.758;8.888;2024-01-25T12:08:31;14.90;70.10
7708;DHT22;3896;48.758;8.888;2024-01-25T12:11:07;15.00;69.60
7708;DHT22;3896;48.758;8.888;2024-01-25T12:13:34;15.10;69.10
7708;DHT22;3896;48.758;8.888;2024-01-25T12:16:00;15.20;69.20
7708;DHT22;3896;48.758;8.888;2024-01-25T12:18:27;15.30;69.00
7708;DHT22;3896;48.758;8.888;2024-01-25T12:20:53;15.40;68.20
7708;DHT22;3896;48.758;8.888;2024-01-25T12:23:20;15.40;67.40
7708;DHT22;3896;48.758;8.888;2024-01-25T12:25:45;15.50;67.50
7708;DHT22;3896;48.758;8.888;2024-01-25T12:28:11;15.60;67.10
7708;DHT22;3896;48.758;8.888;2024-01-25T12:30:36;15.70;66.90
7708;DHT22;3896;48.758;8.888;2024-01-25T12:33:04;15.80;66.40
7708;DHT22;3896;48.758;8.888;2024-01-25T12:35:29;15.90;65.50
7708;DHT22;3896;48.758;8.888;2024-01-25T12:37:55;16.00;65.10
7708;DHT22;3896;48.758;8.888;2024-01-25T12:40:20;16.10;65.00
7708;DHT22;3896;48.758;8.888;2024-01-25T12:42:46;16.20;64.20
7708;DHT22;3896;48.758;8.888;2024-01-25T12:45:11;16.40;64.00
7708;DHT22;3896;48.758;8.888;2024-01-25T12:47:37;16.50;63.50
7708;DHT22;3896;48.758;8.888;2024-01-25T12:50:02;16.60;63.40
7708;DHT22;3896;48.758;8.888;2024-01-25T12:52:29;16.70;63.10
7708;DHT22;3896;48.758;8.888;2024-01-25T12:54:54;16.80;63.30
7708;DHT22;3896;48.758;8.888;2024-01-25T12:57:20;17.00;63.00
7708;DHT22;3896;48.758;8.888;2024-01-25T12:59:46;17.10;62.60
7708;DHT22;3896;48.758;8.888;2024-01-25T13:02:12;17.20;62.80
7708;DHT22;3896;48.758;8.888;2024-01-25T13:04:38;17.40;61.90
7708;DHT22;3896;48.758;8.888;2024-01-25T13:07:03;17.40;60.50
7708;DHT22;3896;48.758;8.888;2024-01-25T13:09:29;17.60;60.20
7708;DHT22;3896;48.758;8.888;2024-01-25T13:11:59;17.60;59.70
7708;DHT22;3896;48.758;8.888;2024-01-25T13:14:24;17.70;59.50
7708;DHT22;3896;48.758;8.888;2024-01-25T13:16:50;17.80;59.50
7708;DHT22;3896;48.758;8.888;2024-01-25T13:19:15;18.00;59.20
7708;DHT22;3896;48.758;8.888;2024-01-25T13:21:41;18.10;58.70
7708;DHT22;3896;48.758;8.888;2024-01-25T13:24:07;18.10;58.30
7708;DHT22;3896;48.758;8.888;2024-01-25T13:26:35;18.30;58.20
7708;DHT22;3896;48.758;8.888;2024-01-25T13:29:02;18.30;58.10
7708;DHT22;3896;48.758;8.888;2024-01-25T13:31:28;18.40;57.90
7708;DHT22;3896;48.758;8.888;2024-01-25T13:33:53;18.50;57.70
7708;DHT22;3896;48.758;8.888;2024-01-25T13:36:19;18.50;57.60
7708;DHT22;3896;48.758;8.888;2024-01-25T13:38:44;18.50;57.50
7708;DHT22;3896;48.758;8.888;2024-01-25T13:41:10;18.60;58.00
7708;DHT22;3896;48.758;8.888;2024-01-25T13:43:35;18.60;57.90
7708;DHT22;3896;48.758;8.888;2024-01-25T13:46:01;18.60;57.70
7708;DHT22;3896;48.758;8.888;2024-01-25T13:48:26;18.60;57.70
7708;DHT22;3896;48.758;8.888;2024-01-25T13:50:52;18.60;57.60
7708;DHT22;3896;48.758;8.888;2024-01-25T13:53:18;18.70;57.40
7708;DHT22;3896;48.758;8.888;2024-01-25T13:55:44;18.70;56.70
7708;DHT22;3896;48.758;8.888;2024-01-25T13:58:10;18.60;56.30
7708;DHT22;3896;48.758;8.888;2024-01-25T14:00:35;18.60;56.40
7708;DHT22;3896;48.758;8.888;2024-01-25T14:03:01;18.50;56.40
7708;DHT22;3896;48.758;8.888;2024-01-25T14:05:26;18.50;56.50
7708;DHT22;3896;48.758;8.888;2024-01-25T14:07:52;18.40;56.00
7708;DHT22;3896;48.758;8.888;2024-01-25T14:10:18;18.30;56.20
7708;DHT22;3896;48.758;8.888;2024-01-25T14:12:45;18.20;56.00
7708;DHT22;3896;48.758;8.888;2024-01-25T14:15:11;18.20;56.20
7708;DHT22;3896;48.758;8.888;2024-01-25T14:17:37;18.10;56.00
7708;DHT22;3896;48.758;8.888;2024-01-25T14:20:03;18.00;56.40
7708;DHT22;3896;48.758;8.888;2024-01-25T14:22:30;17.90;56.50
7708;DHT22;3896;48.758;8.888;2024-01-25T14:24:56;17.80;56.70
7708;DHT22;3896;48.758;8.888;2024-01-25T14:27:21;17.70;57.00
7708;DHT22;3896;48.758;8.888;2024-01-25T14:29:47;17.60;57.10
7708;DHT22;3896;48.758;8.888;2024-01-25T14:32:12;17.50;57.10
7708;DHT22;3896;48.758;8.888;2024-01-25T14:34:38;17.40;57.00
7708;DHT22;3896;48.758;8.888;2024-01-25T14:37:05;17.30;56.90
7708;DHT22;3896;48.758;8.888;2024-01-25T14:39:31;17.10;57.10
7708;DHT22;3896;48.758;8.888;2024-01-25T14:41:56;17.00;57.50
7708;DHT22;3896;48.758;8.888;2024-01-25T14:44:22;17.00;57.70
7708;DHT22;3896;48.758;8.888;2024-01-25T14:46:47;16.90;57.50
7708;DHT22;3896;48.758;8.888;2024-01-25T14:49:13;16.80;57.80
7708;DHT22;3896;48.758;8.888;2024-01-25T14:51:38;16.60;58.00
7708;DHT22;3896;48.758;8.888;2024-01-25T14:54:04;16.50;58.40
7708;DHT22;3896;48.758;8.888;2024-01-25T14:56:29;16.40;58.70
7708;DHT22;3896;48.758;8.888;2024-01-25T14:58:55;16.30;59.10
7708;DHT22;3896;48.758;8.888;2024-01-25T15:01:21;16.20;59.40
7708;DHT22;3896;48.758;8.888;2024-01-25T15:03:53;16.10;59.70
7708;DHT22;3896;48.758;8.888;2024-01-25T15:06:18;16.00;59.80
7708;DHT22;3896;48.758;8.888;2024-01-25T15:08:44;15.90;60.10
7708;DHT22;3896;48.758;8.888;2024-01-25T15:11:09;15.80;60.20
7708;DHT22;3896;48.758;8.888;2024-01-25T15:13:35;15.70;60.70
7708;DHT22;3896;48.758;8.888;2024-01-25T15:16:01;15.60;60.80
7708;DHT22;3896;48.758;8.888;2024-01-25T15:18:27;15.50;61.00
7708;DHT22;3896;48.758;8.888;2024-01-25T15:20:52;15.50;61.20
7708;DHT22;3896;48.758;8.888;2024-01-25T15:23:18;15.40;61.70
7708;DHT22;3896;48.758;8.888;2024-01-25T15:25:44;15.30;61.50
7708;DHT22;3896;48.758;8.888;2024-01-25T15:28:09;15.20;61.80
7708;DHT22;3896;48.758;8.888;2024-01-25T15:30:35;15.10;62.10
7708;DHT22;3896;48.758;8.888;2024-01-25T15:33:01;15.00;62.50
7708;DHT22;3896;48.758;8.888;2024-01-25T15:35:28;14.90;62.70
7708;DHT22;3896;48.758;8.888;2024-01-25T15:37:53;14.80;63.10
7708;DHT22;3896;48.758;8.888;2024-01-25T15:40:19;14.80;63.70
7708;DHT22;3896;48.758;8.888;2024-01-25T15:42:45;14.70;63.90
7708;DHT22;3896;48.758;8.888;2024-01-25T15:45:11;14.70;64.20
7708;DHT22;3896;48.758;8.888;2024-01-25T15:47:36;14.60;64.20
7708;DHT22;3896;48.758;8.888;2024-01-25T15:50:03;14.50;64.30
7708;DHT22;3896;48.758;8.888;2024-01-25T15:52:32;14.50;64.50
7708;DHT22;3896;48.758;8.888;2024-01-25T15:54:58;14.40;64.80
7708;DHT22;3896;48.758;8.888;2024-01-25T15:57:23;14.40;65.10
7708;DHT22;3896;48.758;8.888;2024-01-25T15:59:48;14.30;65.30
7708;DHT22;3896;48.758;8.888;2024-01-25T16:02:15;14.30;65.80
7708;DHT22;3896;48.758;8.888;2024-01-25T16:04:41;14.20;65.90
7708;DHT22;3896;48.758;8.888;2024-01-25T16:07:07;14.70;65.80
7708;DHT22;3896;48.758;8.888;2024-01-25T16:09:33;14.50;65.80
7708;DHT22;3896;48.758;8.888;2024-01-25T16:11:58;14.40;65.90
7708;DHT22;3896;48.758;8.888;2024-01-25T16:14:24;14.30;66.20